NCAR-RAP Real-Time Weather Data

Output produced by METARs form (23 February 2020  02:14 UTC)
found at http://weather.rap.ucar.edu/surface/
 
KSAN 230151Z 27007KT 10SM SCT023 BKN033 BKN040 17/11 A3011 RMK AO2 SLP194 T01670106 $
KSAN 230051Z VRB06KT 10SM SCT025 SCT031 BKN040 17/11 A3008 RMK AO2 SLP185 T01720106 $
KSAN 230046Z 23008KT 10SM SCT025 BKN031 BKN040 17/11 A3008 RMK AO2 $
KSAN 222351Z 27006KT 10SM BKN025 BKN033 BKN041 18/11 A3007 RMK AO2 SLP184 60002 T01780106 10183 20139 53001 $
KSAN 222251Z 27011KT 10SM BKN027 BKN033 18/11 A3007 RMK AO2 SLP182 T01780106 $
KSAN 222244Z 25012KT 10SM BKN027 BKN033 18/11 A3007 RMK AO2 T01780106 $
KSAN 222151Z 26014KT 10SM FEW020 SCT035 SCT060 18/09 A3007 RMK AO2 SLP181 T01830094 $
KSAN 222119Z 25010KT 10SM SCT020 BKN045 BKN060 18/11 A3007 RMK AO2 T01830111 $
KSAN 222051Z 25009KT 220V280 10SM BKN024 BKN045 BKN060 18/12 A3007 RMK AO2 LTG DSNT NW RAB34E49 SLP183 OCNL LTGICCCCG DSNT NW TS DSNT NW MOV NE CB DSNT NW P0000 60002 T01780122 58008 $
KSAN 222044Z 25008KT 9SM -RA BKN024 BKN045 BKN060 17/13 A3008 RMK AO2 LTG DSNT NW RAB34 OCNL LTGICCCCG DSNT NW TS DSNT NW MOV NE CB DSNT NW P0000 T01720128 $
KSAN 222003Z 21007KT 10SM SCT024 BKN045 BKN060 17/12 A3009 RMK AO2 T01720122 $
KSAN 221951Z 21006KT 10SM BKN024 BKN045 BKN060 17/12 A3009 RMK AO2 SLP189 T01670117 $
KSAN 221945Z VRB06KT 10SM BKN024 BKN045 BKN060 17/12 A3009 RMK AO2 $
KSAN 221851Z 18004KT 10SM FEW025 SCT045 BKN060 17/13 A3010 RMK AO2 RAE15 SLP191 P0002 T01670128 $
KSAN 221820Z 15003KT 10SM SCT020 BKN045 BKN060 15/12 A3010 RMK AO2 RAE15 P0002 T01500117 $
KSAN 221751Z 23006KT 4SM -RA BR BKN016 BKN023 14/12 A3010 RMK AO2 WSHFT 1708 LTG DSNT NE RAB15 SLP191 OCNL LTGICCCCG DSNT NE TS DSNT NE MOV NE CB DSNT NE P0004 60008 T01390122 10172 20139 53018 $
KSAN 221727Z COR 27014G24KT 4SM -RA BR BKN016 OVC023 14/12 A3009 RMK AO2 WSHFT 1708 RAB15 OCNL LTGICCCCG DSNT N TS DSNT N MOV NE CB DSNT N P0001 T01390117 $
KSAN 221651Z 17010G19KT 10SM BKN016 BKN023 BKN034 17/14 A3007 RMK AO2 RAE1554 SLP181 P0000 T01720144 $
KSAN 221551Z 13007KT 9SM -RA BKN016 BKN032 BKN045 16/14 A3006 RMK AO2 RAB02 SLP178 P0004 T01610139 $
KSAN 221519Z 14006KT 10SM -RA BKN018 BKN027 BKN080 16/13 A3005 RMK AO2 RAB02 P0000 T01610128 $
KSAN 221451Z 12007KT 10SM SCT019 BKN031 BKN085 16/13 A3004 RMK AO2 SLP172 T01610128 53005 $
KSAN 221430Z 12006KT 10SM SCT019 BKN048 BKN090 16/13 A3003 RMK AO2 T01610128 $
KSAN 221415Z 14005KT 10SM BKN019 BKN048 BKN090 16/13 A3004 RMK AO2 T01610128 $
KSAN 221351Z 15004KT 10SM FEW025 SCT050 BKN090 16/13 A3003 RMK AO2 SLP168 T01610128 $
KSAN 221251Z 16005KT 10SM FEW025 BKN065 BKN085 16/12 A3002 RMK AO2 SLP166 VCSH T01610122 $
KSAN 221151Z 20004KT 10SM FEW025 SCT090 BKN200 16/12 A3003 RMK AO2 SLP167 T01610122 10172 20161 56008 $
KSAN 221059Z 20008KT 10SM FEW014 SCT028 BKN039 17/13 A3003 RMK AO2 T01670128 $
KSAN 221051Z 21008KT 10SM SCT014 BKN023 BKN028 17/13 A3003 RMK AO2 SLP168 T01670128 $
KSAN 221042Z 19005KT 10SM SCT014 BKN022 OVC027 17/13 A3003 RMK AO2 T01670128 $
KSAN 221017Z 16006KT 10SM BKN014 BKN022 OVC041 17/14 A3003 RMK AO2 T01670139 $
KSAN 221002Z 15008KT 10SM SCT014 BKN022 BKN090 17/14 A3004 RMK AO2 T01670139 $
KSAN 220951Z 14010KT 10SM FEW012 BKN031 BKN090 17/14 A3004 RMK AO2 SLP172 T01670139 $
KSAN 220851Z 15007KT 10SM FEW009 SCT025 BKN090 17/14 A3005 RMK AO2 SLP175 T01670144 56004 $
KSAN 220751Z 17009KT 10SM FEW009 SCT025 BKN090 17/14 A3005 RMK AO2 SLP176 T01670144 401940117 $
KSAN 220748Z 17008KT 10SM FEW009 SCT025 BKN090 17/14 A3005 RMK AO2 $
KSAN 220651Z 17008G16KT 10SM SCT009 BKN020 BKN090 17/15 A3006 RMK AO2 SLP178 T01670150 $
KSAN 220629Z 17009G16KT 10SM FEW009 BKN023 BKN095 17/15 A3006 RMK AO2 T01670150 $
KSAN 220551Z 17007KT 10SM SCT009 BKN022 BKN090 17/14 A3007 RMK AO2 SLP183 60000 T01720144 10183 20167 51013 $
KSAN 220537Z 18007KT 10SM SCT009 BKN022 BKN090 17/14 A3008 RMK AO2 T01720139 $
KSAN 220451Z 20008G16KT 10SM BKN009 BKN015 BKN110 17/14 A3007 RMK AO2 SLP181 VCSH T01720139 $
KSAN 220419Z 17007KT 9SM BKN009 BKN110 17/15 A3006 RMK AO2 VCSH T01670150 $
KSAN 220351Z COR 18007KT 9SM SCT008 BKN100 BKN120 17/15 A3006 RMK AO2 RAB15E25 SLP177 VCSH P0000 T01670150 $
KSAN 220251Z 18008KT 10SM FEW008 SCT055 BKN100 17/14 A3003 RMK AO2 RAB01E11 SLP170 VCSH P0000 60000 T01670144 53011 $
KSAN 220151Z COR 20008G17KT 10SM FEW008 SCT095 BKN120 17/14 A3003 RMK AO2 SLP167 VCSH T01720144 $
KSAN 220051Z 20005KT 10SM FEW008 SCT100 BKN120 18/14 A3000 RMK AO2 SLP160 T01780139 $
KSAN 212351Z 16009G16KT 10SM FEW003 FEW010 BKN110 18/14 A3000 RMK AO2 SLP159 T01830144 10194 20167 58001 $
KSAN 212251Z 18006KT 9SM FEW003 BKN110 BKN250 18/14 A3001 RMK AO2 SLP161 T01830144 $
KSAN 212151Z 23007KT 8SM FEW003 SCT110 BKN250 19/14 A3000 RMK AO2 SLP158 T01890139 $
KSAN 212051Z VRB05KT 8SM FEW002 SCT120 BKN250 19/13 A3000 RMK AO2 SLP160 T01890133 58022
KSAN 211951Z VRB06KT 8SM SCT002 SCT120 BKN220 17/14 A3005 RMK AO2 SLP174 T01720139
KSAN 211851Z 21005KT 9SM VCFG FEW000 SCT110 BKN220 18/12 A3005 RMK AO2 SLP177 FG FEW000 FG BANK S-SW T01830122
KSAN 211751Z 20006KT 9SM FEW000 SCT004 BKN250 17/13 A3007 RMK AO2 SLP182 FG FEW000 FG BANK S-SW T01670128 10178 20117 52016
KSAN 211651Z 21004KT 9SM FEW005 SCT180 SCT250 17/10 A3006 RMK AO2 SLP179 T01720100
KSAN 211551Z 00000KT 7SM FEW005 SCT160 SCT250 16/12 A3003 RMK AO2 SLP169 T01560117
KSAN 211451Z 00000KT 10SM FEW004 SCT160 BKN250 12/09 A3002 RMK AO2 SLP166 T01220094 53002 $
KSAN 211351Z 00000KT 7SM FEW003 SCT180 BKN250 12/11 A3001 RMK AO2 SLP162 T01220106 $
KSAN 211251Z 00000KT 4SM BR FEW003 SCT180 BKN250 13/12 A3002 RMK AO2 SLP165 T01330122 $
KSAN 211151Z 00000KT 5SM BR FEW003 SCT180 BKN250 15/13 A3002 RMK AO2 SLP163 T01500128 10161 20128 57008 $
KSAN 211051Z 00000KT 3SM BR FEW000 FEW003 SCT180 BKN250 13/13 A3003 RMK AO2 SLP167 W-NW 3/4 FG FEW000 FG BANK W-NW T01330128 $
KSAN 211047Z 00000KT 3SM R09/5500VP6000FT BR FEW000 FEW003 SCT180 BKN250 13/13 A3003 RMK AO2 W-NW 3/4 FG FEW000 FG BANK W-NW $
KSAN 211023Z 00000KT 2SM R09/1600VP6000FT BR SCT003 BKN180 BKN250 13/13 A3004 RMK AO2 VIS NE-SE 4 W-NW 1 T01330128 $
KSAN 211016Z 32003KT 2SM R09/1400V2000FT BR SCT003 BKN180 BKN250 13/13 A3004 RMK AO2 VIS NE-SE 4 W-NW 1 T01330128 $
KSAN 211006Z 32003KT 1SM R09/1200V2000FT BR SCT003 BKN180 BKN250 13/13 A3004 RMK AO2 VIS NE-SE 4 SW-NW 3/4 T01330128 $
KSAN 210951Z 32003KT 4SM BR FEW000 SCT180 BKN250 14/12 A3004 RMK AO2 SLP171 VIS W 3/4 FG FEW000 FG BANK W T01390122 $
KSAN 210851Z 32005KT 4SM BR FEW003 SCT180 14/13 A3005 RMK AO2 SLP174 T01440128 58004 $
KSAN 210808Z 03004KT 3SM BR SCT003 BKN180 16/14 A3006 RMK AO2 T01560144 $
KSAN 210751Z 34005KT 2SM BR OVC003 16/16 A3007 RMK AO2 SLP181 T01610156 402220106 $
KSAN 210739Z 32006KT 2SM BR OVC003 16/16 A3007 RMK AO2 T01610156 $
KSAN 210718Z 30004KT 3SM BR BKN003 16/14 A3007 RMK AO2 T01560144 $
KSAN 210651Z 32003KT 4SM BR FEW005 SCT230 15/13 A3007 RMK AO2 SLP180 T01500133 $
KSAN 210551Z 29004KT 4SM BR FEW005 SCT230 16/14 A3006 RMK AO2 SLP179 T01610139 10200 20161 53005 $
KSAN 210451Z 00000KT 5SM HZ FEW005 BKN230 17/14 A3006 RMK AO2 SLP177 T01670139 $
KSAN 210351Z 00000KT 5SM HZ FEW005 BKN230 17/14 A3004 RMK AO2 SLP173 T01720139 $
KSAN 210251Z 31003KT 6SM HZ FEW005 BKN230 17/14 A3005 RMK AO2 SLP174 T01720139 53005 $